createdAt,value
2019-06-01T00:00:11.009Z,13.72
2019-06-01T00:02:29.601Z,13.61
2019-06-01T00:04:58.241Z,13.72
2019-06-01T00:07:26.877Z,13.71
2019-06-01T00:09:55.514Z,13.66
2019-06-01T00:12:24.082Z,13.62
2019-06-01T00:14:52.655Z,13.64
2019-06-01T00:17:21.225Z,13.67
2019-06-01T00:19:50.320Z,13.62
2019-06-01T00:22:18.965Z,13.60
2019-06-01T00:24:48.058Z,13.55
2019-06-01T00:27:16.623Z,13.52
2019-06-01T00:29:45.257Z,13.50
2019-06-01T00:32:13.777Z,13.52
2019-06-01T00:34:43.521Z,13.54
2019-06-01T00:37:12.187Z,13.63
2019-06-01T00:39:41.664Z,13.70
2019-06-01T00:42:10.258Z,13.59
2019-06-01T00:44:38.831Z,13.60
2019-06-01T00:47:07.399Z,13.62
2019-06-01T00:49:36.070Z,13.69
2019-06-01T00:52:04.696Z,13.67
2019-06-01T00:54:33.244Z,13.77
2019-06-01T00:57:01.797Z,13.77
2019-06-01T00:59:30.460Z,13.71
2019-06-01T01:01:59.040Z,13.62
2019-06-01T01:04:27.610Z,13.58
2019-06-01T01:06:56.147Z,13.57
2019-06-01T01:09:24.701Z,13.65
2019-06-01T01:11:53.392Z,13.58
2019-06-01T01:14:21.932Z,13.75
2019-06-01T01:16:51.663Z,13.80
2019-06-01T01:19:20.276Z,13.89
2019-06-01T01:21:50.349Z,13.92
2019-06-01T01:24:18.945Z,13.94
2019-06-01T01:26:48.473Z,13.95
2019-06-01T01:29:17.142Z,14.06
2019-06-01T01:31:45.629Z,14.10
2019-06-01T01:34:14.186Z,14.15
2019-06-01T01:36:42.757Z,14.19
2019-06-01T01:39:11.321Z,14.19
2019-06-01T01:41:39.831Z,14.18
2019-06-01T01:44:08.403Z,14.12
2019-06-01T01:46:36.955Z,14.09
2019-06-01T01:49:05.581Z,14.22
2019-06-01T01:51:34.141Z,14.27
2019-06-01T01:54:04.489Z,14.31
2019-06-01T01:56:33.173Z,14.25
2019-06-01T01:59:04.132Z,14.17
2019-06-01T02:01:32.001Z,14.20
2019-06-01T02:04:00.501Z,14.31
2019-06-01T02:06:29.541Z,14.30
2019-06-01T02:08:59.216Z,14.33
2019-06-01T02:11:28.029Z,14.33
2019-06-01T02:13:57.795Z,14.25
2019-06-01T02:16:26.483Z,14.08
2019-06-01T02:18:55.957Z,13.95
2019-06-01T02:21:25.489Z,13.77
2019-06-01T02:23:54.847Z,13.63
2019-06-01T02:26:23.712Z,13.55
2019-06-01T02:28:53.173Z,13.44
2019-06-01T02:31:39.767Z,13.41
2019-06-01T02:33:52.058Z,13.37
2019-06-01T02:36:20.630Z,13.52
2019-06-01T02:41:23.926Z,13.65
2019-06-01T02:43:52.488Z,13.67
2019-06-01T02:46:21.063Z,13.66
2019-06-01T02:48:49.559Z,13.73
2019-06-01T02:51:18.209Z,13.68
2019-06-01T02:53:46.774Z,13.75
2019-06-01T02:56:15.347Z,13.78
2019-06-01T02:58:43.987Z,13.74
2019-06-01T03:01:34.219Z,13.69
2019-06-01T03:04:07.782Z,13.81
2019-06-01T03:06:39.408Z,13.83
2019-06-01T03:09:09.986Z,13.79
2019-06-01T03:11:40.151Z,13.80
2019-06-01T03:14:10.616Z,13.78
2019-06-01T03:16:41.298Z,13.78
2019-06-01T03:19:09.975Z,13.74
2019-06-01T03:21:38.815Z,13.78
2019-06-01T03:24:13.249Z,13.82
2019-06-01T03:26:44.188Z,13.88
2019-06-01T03:29:16.486Z,13.92
2019-06-01T03:31:45.715Z,13.95
2019-06-01T03:34:14.512Z,14.02
2019-06-01T03:36:43.812Z,14.06
2019-06-01T03:39:13.109Z,14.10
2019-06-01T03:41:41.969Z,14.20
2019-06-01T03:44:10.609Z,14.27
2019-06-01T03:46:39.173Z,14.37
2019-06-01T03:49:07.911Z,14.43
2019-06-01T03:51:36.548Z,14.52
2019-06-01T03:54:06.852Z,14.58
2019-06-01T03:56:35.817Z,14.63
2019-06-01T03:59:05.088Z,14.62
2019-06-01T04:01:33.930Z,14.64
2019-06-01T04:04:03.063Z,14.70
2019-06-01T04:06:31.834Z,14.77
2019-06-01T04:09:01.574Z,14.90
2019-06-01T04:11:30.295Z,14.99
2019-06-01T04:13:58.824Z,15.14
2019-06-01T04:16:27.491Z,15.26
2019-06-01T04:18:56.145Z,15.42
2019-06-01T04:21:24.715Z,15.52
2019-06-01T04:23:53.324Z,15.61
2019-06-01T04:26:21.961Z,15.69
2019-06-01T04:28:50.494Z,15.79
2019-06-01T04:31:19.029Z,15.87
2019-06-01T04:33:47.658Z,15.98
2019-06-01T04:36:16.258Z,16.07
2019-06-01T04:38:44.828Z,16.18
2019-06-01T04:41:14.109Z,16.31
2019-06-01T04:43:42.796Z,16.34
2019-06-01T04:46:12.338Z,16.34
2019-06-01T04:48:41.290Z,16.26
2019-06-01T04:51:11.713Z,16.20
2019-06-01T04:53:40.219Z,16.24
2019-06-01T04:56:09.085Z,16.38
2019-06-01T04:58:37.878Z,16.49
2019-06-01T05:01:06.918Z,16.47
2019-06-01T05:03:35.595Z,16.44
2019-06-01T05:06:05.066Z,16.41
2019-06-01T05:08:33.826Z,16.34
2019-06-01T05:11:05.228Z,16.36
2019-06-01T05:13:32.855Z,16.44
2019-06-01T05:16:01.495Z,16.50
2019-06-01T05:18:30.138Z,16.54
2019-06-01T05:20:58.706Z,16.60
2019-06-01T05:23:27.387Z,16.78
2019-06-01T05:25:56.021Z,16.78
2019-06-01T05:28:24.695Z,16.88
2019-06-01T05:30:53.333Z,16.96
2019-06-01T05:33:36.506Z,17.03
2019-06-01T05:35:52.291Z,17.14
2019-06-01T05:38:20.839Z,17.21
2019-06-01T05:40:49.404Z,17.21
2019-06-01T05:43:20.871Z,17.30
2019-06-01T05:45:48.300Z,17.40
2019-06-01T05:48:23.617Z,17.55
2019-06-01T05:50:47.294Z,17.55
2019-06-01T05:53:16.721Z,17.63
2019-06-01T05:55:45.298Z,17.75
2019-06-01T05:58:15.104Z,17.80
2019-06-01T06:00:44.403Z,17.91
2019-06-01T06:03:17.766Z,18.02
2019-06-01T06:05:43.279Z,18.23
2019-06-01T06:08:12.707Z,18.23
2019-06-01T06:10:42.337Z,18.34
2019-06-01T06:13:11.151Z,18.40
2019-06-01T06:15:39.839Z,18.54
2019-06-01T06:18:08.324Z,18.69
2019-06-01T06:20:36.936Z,18.90
2019-06-01T06:23:05.562Z,19.17
2019-06-01T06:25:36.350Z,19.37
2019-06-01T06:28:04.514Z,19.38
2019-06-01T06:30:33.156Z,19.41
2019-06-01T06:33:01.838Z,19.36
2019-06-01T06:35:30.396Z,19.41
2019-06-01T06:37:59.029Z,19.50
2019-06-01T06:40:27.707Z,19.39
2019-06-01T06:42:56.346Z,19.40
2019-06-01T06:45:25.035Z,19.50
2019-06-01T06:47:53.598Z,19.69
2019-06-01T06:50:23.457Z,19.95
2019-06-01T06:52:52.199Z,20.07
2019-06-01T06:55:21.940Z,20.15
2019-06-01T06:57:50.502Z,20.31
2019-06-01T07:00:20.616Z,20.57
2019-06-01T07:02:49.276Z,20.76
2019-06-01T07:05:19.217Z,20.86
2019-06-01T07:07:47.997Z,20.87
2019-06-01T07:10:17.896Z,20.93
2019-06-01T07:12:46.704Z,20.85
2019-06-01T07:15:15.341Z,20.97
2019-06-01T07:17:43.856Z,21.08
2019-06-01T07:20:12.502Z,21.10
2019-06-01T07:22:41.019Z,21.24
2019-06-01T07:25:11.131Z,21.57
2019-06-01T07:27:39.793Z,21.81
2019-06-01T07:30:08.430Z,21.98
2019-06-01T07:32:36.996Z,22.24
2019-06-01T07:35:08.696Z,22.42
2019-06-01T07:37:37.266Z,22.36
2019-06-01T07:40:06.612Z,22.35
2019-06-01T07:42:35.665Z,22.32
2019-06-01T07:45:06.532Z,22.22
2019-06-01T07:47:35.223Z,22.33
2019-06-01T07:50:05.355Z,22.58
2019-06-01T07:52:33.994Z,22.80
2019-06-01T07:55:02.581Z,23.01
2019-06-01T07:57:31.800Z,23.70
2019-06-01T08:00:03.164Z,25.31
2019-06-01T08:02:33.002Z,26.09
2019-06-01T08:05:01.586Z,26.45
2019-06-01T08:07:31.202Z,26.83
2019-06-01T08:09:59.985Z,26.94
2019-06-01T08:12:29.653Z,27.51
2019-06-01T08:14:58.481Z,28.14
2019-06-01T08:17:28.101Z,27.66
2019-06-01T08:19:56.793Z,29.37
2019-06-01T08:22:25.996Z,29.85
2019-06-01T08:24:54.622Z,29.91
2019-06-01T08:27:24.348Z,30.38
2019-06-01T08:29:53.168Z,30.82
2019-06-01T08:32:22.642Z,31.53
2019-06-01T08:35:07.315Z,32.18
2019-06-01T08:37:21.715Z,32.02
2019-06-01T08:39:51.763Z,31.57
2019-06-01T08:42:20.391Z,32.15
2019-06-01T08:44:49.026Z,31.90
2019-06-01T08:47:17.706Z,33.51
2019-06-01T08:49:46.269Z,33.27
2019-06-01T08:52:14.871Z,33.45
2019-06-01T08:54:43.410Z,33.35
2019-06-01T08:57:12.077Z,32.99
2019-06-01T08:59:40.731Z,35.20
2019-06-01T09:02:09.360Z,33.40
2019-06-01T09:04:37.973Z,34.06
2019-06-01T09:07:06.618Z,34.56
2019-06-01T09:09:35.332Z,33.33
2019-06-01T09:12:06.490Z,33.71
2019-06-01T09:14:35.598Z,34.27
2019-06-01T09:17:04.337Z,33.86
2019-06-01T09:19:33.580Z,34.65
2019-06-01T09:22:02.231Z,34.69
2019-06-01T09:24:31.935Z,35.60
2019-06-01T09:27:00.673Z,36.05
2019-06-01T09:29:30.051Z,36.87
2019-06-01T09:31:58.836Z,37.31
2019-06-01T09:34:28.437Z,37.07
2019-06-01T09:36:57.053Z,38.30
2019-06-01T09:39:26.599Z,37.93
2019-06-01T09:41:55.270Z,37.45
2019-06-01T09:44:23.897Z,37.59
2019-06-01T09:46:52.543Z,37.33
2019-06-01T09:49:21.178Z,38.49
2019-06-01T09:51:49.818Z,38.22
2019-06-01T09:54:18.423Z,38.24
2019-06-01T09:56:47.062Z,37.84
2019-06-01T09:59:15.729Z,37.99
2019-06-01T10:01:47.559Z,38.97
2019-06-01T10:04:16.276Z,39.89
2019-06-01T10:06:44.919Z,40.00
2019-06-01T10:09:13.493Z,39.40
2019-06-01T10:11:42.465Z,39.04
2019-06-01T10:14:11.239Z,38.81
2019-06-01T10:16:39.828Z,37.84
2019-06-01T10:19:08.490Z,38.78
2019-06-01T10:21:38.041Z,37.64
2019-06-01T10:24:06.807Z,38.34
2019-06-01T10:26:35.726Z,39.10
2019-06-01T10:29:04.906Z,39.14
2019-06-01T10:31:34.681Z,39.28
2019-06-01T10:34:03.761Z,40.36
2019-06-01T10:36:33.961Z,40.43
2019-06-01T10:39:02.717Z,41.39
2019-06-01T10:41:31.348Z,41.43
2019-06-01T10:43:59.847Z,39.96
2019-06-01T10:46:28.458Z,38.64
2019-06-01T10:48:59.720Z,36.26
2019-06-01T10:51:28.351Z,34.72
2019-06-01T10:53:56.861Z,33.85
2019-06-01T10:56:25.425Z,33.58
2019-06-01T10:59:00.121Z,32.88
2019-06-01T11:01:24.261Z,31.84
2019-06-01T11:03:52.933Z,31.26
2019-06-01T11:06:36.237Z,30.94
2019-06-01T11:08:51.884Z,32.32
2019-06-01T11:11:20.442Z,34.84
2019-06-01T11:13:49.040Z,37.08
2019-06-01T11:16:17.690Z,39.08
2019-06-01T11:18:46.365Z,39.81
2019-06-01T11:21:15.002Z,38.26
2019-06-01T11:23:46.383Z,38.95
2019-06-01T11:26:14.001Z,38.91
2019-06-01T11:28:44.235Z,38.23
2019-06-01T11:31:12.846Z,38.50
2019-06-01T11:33:42.037Z,36.79
2019-06-01T11:36:10.959Z,37.26
2019-06-01T11:38:40.440Z,40.04
2019-06-01T11:41:09.145Z,39.66
2019-06-01T11:43:38.653Z,37.94
2019-06-01T11:46:10.215Z,38.22
2019-06-01T11:48:39.316Z,37.85
2019-06-01T11:51:08.103Z,39.50
2019-06-01T11:53:37.332Z,40.98
2019-06-01T11:56:06.089Z,39.72
2019-06-01T11:58:37.249Z,39.04
2019-06-01T12:01:05.925Z,39.93
2019-06-01T12:03:35.544Z,40.50
2019-06-01T12:06:04.670Z,41.18
2019-06-01T12:08:34.226Z,41.21
2019-06-01T12:11:03.080Z,41.80
2019-06-01T12:13:31.558Z,43.14
2019-06-01T12:16:00.127Z,44.51
2019-06-01T12:18:28.739Z,43.42
2019-06-01T12:20:57.371Z,42.82
2019-06-01T12:23:25.861Z,39.75
2019-06-01T12:25:54.534Z,40.43
2019-06-01T12:28:23.084Z,41.49
2019-06-01T12:30:51.609Z,40.01
2019-06-01T12:33:22.922Z,39.29
2019-06-01T12:35:51.539Z,38.58
2019-06-01T12:38:20.213Z,40.15
2019-06-01T12:40:48.846Z,38.90
2019-06-01T12:43:17.486Z,39.54
2019-06-01T12:45:46.048Z,38.47
2019-06-01T12:48:14.630Z,37.83
2019-06-01T12:50:47.799Z,38.63
2019-06-01T12:53:14.383Z,37.92
2019-06-01T12:55:43.016Z,38.60
2019-06-01T12:58:11.617Z,38.10
2019-06-01T13:00:40.415Z,39.83
2019-06-01T13:03:09.089Z,40.48
2019-06-01T13:05:37.654Z,39.60
2019-06-01T13:08:06.331Z,40.51
2019-06-01T13:10:34.898Z,39.05
2019-06-01T13:13:03.569Z,36.93
2019-06-01T13:15:32.198Z,35.98
2019-06-01T13:18:00.728Z,38.43
2019-06-01T13:20:29.294Z,38.87
2019-06-01T13:22:57.960Z,40.00
2019-06-01T13:25:26.595Z,38.90
2019-06-01T13:27:55.200Z,37.52
2019-06-01T13:30:23.836Z,36.93
2019-06-01T13:32:52.840Z,36.48
2019-06-01T13:35:21.638Z,35.44
2019-06-01T13:37:50.974Z,35.71
2019-06-01T13:40:20.549Z,37.96
2019-06-01T13:42:49.250Z,39.60
2019-06-01T13:45:17.999Z,41.27
2019-06-01T13:47:47.651Z,42.10
2019-06-01T13:50:16.802Z,40.80
2019-06-01T13:52:45.826Z,40.75
2019-06-01T13:55:14.823Z,39.12
2019-06-01T13:57:44.219Z,35.92
2019-06-01T14:00:15.850Z,33.88
2019-06-01T14:02:47.674Z,33.03
2019-06-01T14:05:13.760Z,33.54
2019-06-01T14:07:42.337Z,33.75
2019-06-01T14:10:11.087Z,35.19
2019-06-01T14:12:39.599Z,35.47
2019-06-01T14:15:08.454Z,36.61
2019-06-01T14:17:39.733Z,35.80
2019-06-01T14:20:08.818Z,34.98
2019-06-01T14:22:37.489Z,35.15
2019-06-01T14:25:13.579Z,34.90
2019-06-01T14:27:37.974Z,35.17
2019-06-01T14:30:07.719Z,36.83
2019-06-01T14:32:36.238Z,36.73
2019-06-01T14:35:09.017Z,36.68
2019-06-01T14:37:37.624Z,37.66
2019-06-01T14:40:07.256Z,37.81
2019-06-01T14:42:35.861Z,37.96
2019-06-01T14:45:07.364Z,39.13
2019-06-01T14:47:35.934Z,38.11
2019-06-01T14:50:09.228Z,35.60
2019-06-01T14:52:37.899Z,34.97
2019-06-01T14:55:07.867Z,34.92
2019-06-01T14:57:36.515Z,34.66
2019-06-01T15:00:07.392Z,33.93
2019-06-01T15:02:36.053Z,33.04
2019-06-01T15:05:08.940Z,32.01
2019-06-01T15:07:37.606Z,31.99
2019-06-01T15:10:08.239Z,31.60
2019-06-01T15:12:36.882Z,30.67
2019-06-01T15:15:09.360Z,31.02
2019-06-01T15:17:37.950Z,31.72
2019-06-01T15:20:08.584Z,33.19
2019-06-01T15:22:37.219Z,34.85
2019-06-01T15:25:09.334Z,35.47
2019-06-01T15:27:38.010Z,34.99
2019-06-01T15:30:07.688Z,34.56
2019-06-01T15:32:38.897Z,34.51
2019-06-01T15:35:11.620Z,34.43
2019-06-01T15:37:40.189Z,33.93
2019-06-01T15:40:09.522Z,31.31
2019-06-01T15:42:40.885Z,29.32
2019-06-01T15:45:10.719Z,28.34
2019-06-01T15:47:39.366Z,28.17
2019-06-01T15:50:09.351Z,28.45
2019-06-01T15:52:38.057Z,29.83
2019-06-01T15:55:07.792Z,31.31
2019-06-01T15:57:36.428Z,32.27
2019-06-01T16:00:08.969Z,32.77
2019-06-01T16:02:37.622Z,32.91
2019-06-01T16:05:07.926Z,33.58
2019-06-01T16:07:36.576Z,32.89
2019-06-01T16:10:08.326Z,33.50
2019-06-01T16:12:37.311Z,33.16
2019-06-01T16:15:08.317Z,31.60
2019-06-01T16:17:36.981Z,30.58
2019-06-01T16:20:10.492Z,29.75
2019-06-01T16:22:39.245Z,29.02
2019-06-01T16:25:08.280Z,28.23
2019-06-01T16:27:36.965Z,27.45
2019-06-01T16:30:09.042Z,26.61
2019-06-01T16:32:39.610Z,26.09
2019-06-01T16:35:08.292Z,25.74
2019-06-01T16:37:36.884Z,25.36
2019-06-01T16:40:09.902Z,25.04
2019-06-01T16:42:37.789Z,24.92
2019-06-01T16:45:07.865Z,24.57
2019-06-01T16:47:36.542Z,24.48
2019-06-01T16:50:09.599Z,24.20
2019-06-01T16:52:38.292Z,24.23
2019-06-01T16:55:08.186Z,24.23
2019-06-01T16:57:36.824Z,24.54
2019-06-01T17:00:10.274Z,24.60
2019-06-01T17:02:38.953Z,24.51
2019-06-01T17:05:08.395Z,24.32
2019-06-01T17:07:36.978Z,23.94
2019-06-01T17:10:23.884Z,23.72
2019-06-01T17:12:42.291Z,23.55
2019-06-01T17:15:08.944Z,23.40
2019-06-01T17:17:37.594Z,23.20
2019-06-01T17:20:07.373Z,22.95
2019-06-01T17:22:39.063Z,22.90
2019-06-01T17:25:08.507Z,22.83
2019-06-01T17:27:37.017Z,22.76
2019-06-01T17:30:10.004Z,22.73
2019-06-01T17:32:36.640Z,22.60
2019-06-01T17:35:07.071Z,22.53
2019-06-01T17:37:35.650Z,22.44
2019-06-01T17:40:06.599Z,22.37
2019-06-01T17:42:35.218Z,22.20
2019-06-01T17:45:06.393Z,22.19
2019-06-01T17:47:40.968Z,22.10
2019-06-01T17:50:09.752Z,21.98
2019-06-01T17:52:38.521Z,22.00
2019-06-01T17:55:07.263Z,22.08
2019-06-01T17:57:35.909Z,21.95
2019-06-01T18:00:07.685Z,22.00
2019-06-01T18:02:36.411Z,22.11
2019-06-01T18:05:06.436Z,22.12
2019-06-01T18:07:35.113Z,22.17
2019-06-01T18:10:08.263Z,22.15
2019-06-01T18:12:37.115Z,22.10
2019-06-01T18:15:10.267Z,21.86
2019-06-01T18:17:38.983Z,21.58
2019-06-01T18:20:08.962Z,21.32
2019-06-01T18:22:37.616Z,21.13
2019-06-01T18:25:10.498Z,21.04
2019-06-01T18:27:39.240Z,20.93
2019-06-01T18:30:10.868Z,20.95
2019-06-01T18:32:39.544Z,20.85
2019-06-01T18:35:09.345Z,20.69
2019-06-01T18:37:38.139Z,20.49
2019-06-01T18:40:08.052Z,20.33
2019-06-01T18:42:37.380Z,20.29
2019-06-01T18:45:08.206Z,20.19
2019-06-01T18:47:36.944Z,20.09
2019-06-01T18:50:07.941Z,19.95
2019-06-01T18:52:36.632Z,19.91
2019-06-01T18:55:08.630Z,19.93
2019-06-01T18:57:40.213Z,19.92
2019-06-01T19:00:12.023Z,19.87
2019-06-01T19:02:40.427Z,19.84
2019-06-01T19:05:09.306Z,19.88
2019-06-01T19:07:37.953Z,19.90
2019-06-01T19:10:09.370Z,19.91
2019-06-01T19:12:38.112Z,19.94
2019-06-01T19:15:15.642Z,20.05
2019-06-01T19:17:38.089Z,20.09
2019-06-01T19:20:08.478Z,20.27
2019-06-01T19:22:37.221Z,20.35
2019-06-01T19:25:06.915Z,20.42
2019-06-01T19:27:35.558Z,20.55
2019-06-01T19:30:09.018Z,20.68
2019-06-01T19:32:37.960Z,20.91
2019-06-01T19:35:07.607Z,20.87
2019-06-01T19:37:38.525Z,20.79
2019-06-01T19:40:09.329Z,20.86
2019-06-01T19:42:38.044Z,20.86
2019-06-01T19:45:14.366Z,20.80
2019-06-01T19:47:37.749Z,20.63
2019-06-01T19:50:08.236Z,20.47
2019-06-01T19:52:36.796Z,20.68
2019-06-01T19:55:08.782Z,20.72
2019-06-01T19:57:37.558Z,20.54
2019-06-01T20:00:10.143Z,20.49
2019-06-01T20:02:38.811Z,20.31
2019-06-01T20:05:07.585Z,20.21
2019-06-01T20:07:36.144Z,20.19
2019-06-01T20:10:07.753Z,20.16
2019-06-01T20:12:36.402Z,20.13
2019-06-01T20:15:06.955Z,20.00
2019-06-01T20:17:35.592Z,19.97
2019-06-01T20:20:10.762Z,19.84
2019-06-01T20:22:39.273Z,19.92
2019-06-01T20:25:08.814Z,20.14
2019-06-01T20:27:37.432Z,20.20
2019-06-01T20:30:07.537Z,20.24
2019-06-01T20:32:36.179Z,20.08
2019-06-01T20:35:05.931Z,20.00
2019-06-01T20:37:34.496Z,20.07
2019-06-01T20:40:03.778Z,20.11
2019-06-01T20:42:33.068Z,20.04
2019-06-01T20:45:01.725Z,19.88
2019-06-01T20:47:30.244Z,19.85
2019-06-01T20:49:58.804Z,19.85
2019-06-01T20:52:28.105Z,19.91
2019-06-01T20:54:56.771Z,19.83
2019-06-01T20:57:25.292Z,19.70
2019-06-01T20:59:53.791Z,19.60
2019-06-01T21:02:22.384Z,19.74
2019-06-01T21:04:50.955Z,19.65
2019-06-01T21:07:19.981Z,19.53
2019-06-01T21:09:48.586Z,19.58
2019-06-01T21:12:18.437Z,19.54
2019-06-01T21:14:47.121Z,19.45
2019-06-01T21:17:16.467Z,19.44
2019-06-01T21:19:45.198Z,19.39
2019-06-01T21:22:14.505Z,19.31
2019-06-01T21:24:43.144Z,19.11
2019-06-01T21:27:11.860Z,18.94
2019-06-01T21:29:43.728Z,18.86
2019-06-01T21:32:12.345Z,18.76
2019-06-01T21:34:40.950Z,18.62
2019-06-01T21:37:09.595Z,18.56
2019-06-01T21:39:38.180Z,18.64
2019-06-01T21:42:06.846Z,18.68
2019-06-01T21:44:35.487Z,18.70
2019-06-01T21:47:04.172Z,18.65
2019-06-01T21:49:32.749Z,18.66
2019-06-01T21:52:01.356Z,18.60
2019-06-01T21:54:29.925Z,18.54
2019-06-01T21:56:58.537Z,18.57
2019-06-01T21:59:27.227Z,18.46
2019-06-01T22:01:55.866Z,18.54
2019-06-01T22:04:25.680Z,18.39
2019-06-01T22:06:54.315Z,18.35
2019-06-01T22:09:23.349Z,18.37
2019-06-01T22:11:52.118Z,18.32
2019-06-01T22:14:21.355Z,18.23
2019-06-01T22:16:50.019Z,18.30
2019-06-01T22:19:19.565Z,18.24
2019-06-01T22:21:48.191Z,18.22
2019-06-01T22:24:17.701Z,18.16
2019-06-01T22:26:46.440Z,18.30
2019-06-01T22:29:15.077Z,18.47
2019-06-01T22:31:43.667Z,18.51
2019-06-01T22:34:12.316Z,18.46
2019-06-01T22:36:40.815Z,18.46
2019-06-01T22:39:09.379Z,18.58
2019-06-01T22:41:37.917Z,18.46
2019-06-01T22:44:06.498Z,18.52
2019-06-01T22:46:35.101Z,18.55
2019-06-01T22:49:03.745Z,18.67
2019-06-01T22:51:33.274Z,18.59
2019-06-01T22:54:02.111Z,18.63
2019-06-01T22:56:31.491Z,18.60
2019-06-01T22:59:00.140Z,18.63
2019-06-01T23:01:28.901Z,18.66
2019-06-01T23:03:57.466Z,18.68
2019-06-01T23:06:27.050Z,18.72
2019-06-01T23:08:55.598Z,18.60
2019-06-01T23:11:25.148Z,18.60
2019-06-01T23:13:54.099Z,18.49
2019-06-01T23:16:23.623Z,18.53
2019-06-01T23:18:52.388Z,18.46
2019-06-01T23:21:21.825Z,18.45
2019-06-01T23:23:50.321Z,18.30
2019-06-01T23:26:18.831Z,18.32
2019-06-01T23:28:47.528Z,18.40
2019-06-01T23:31:16.138Z,18.36
2019-06-01T23:33:44.742Z,18.37
2019-06-01T23:36:13.341Z,18.40
2019-06-01T23:38:41.980Z,18.48
2019-06-01T23:41:10.637Z,18.55
2019-06-01T23:43:39.146Z,18.57
2019-06-01T23:46:07.803Z,18.57
2019-06-01T23:48:36.305Z,18.49
2019-06-01T23:51:04.958Z,18.48
2019-06-01T23:53:33.850Z,18.62
2019-06-01T23:56:02.564Z,18.58
2019-06-01T23:58:32.544Z,18.62
